createdAt,value
2018-11-20T00:04:07.171Z,89
2018-11-20T00:09:39.427Z,89
2018-11-20T00:15:02.067Z,89
2018-11-20T00:25:57.665Z,89
2018-11-20T00:31:26.118Z,89
2018-11-20T00:36:53.536Z,89
2018-11-20T00:42:21.316Z,89
2018-11-20T00:47:49.421Z,89
2018-11-20T00:53:16.829Z,89
2018-11-20T00:58:45.322Z,89
2018-11-20T01:04:13.696Z,89
2018-11-20T01:09:46.532Z,89
2018-11-20T01:15:09.623Z,89
2018-11-20T01:20:36.991Z,89
2018-11-20T01:26:04.413Z,89
2018-11-20T01:31:32.835Z,89
2018-11-20T01:37:00.345Z,89
2018-11-20T01:42:28.648Z,89
2018-11-20T01:47:56.054Z,89
2018-11-20T01:53:29.494Z,89
2018-11-20T01:58:57.909Z,88
2018-11-20T02:04:21.627Z,88
2018-11-20T02:09:49.713Z,88
2018-11-20T02:15:28.253Z,88
2018-11-20T02:20:50.592Z,88
2018-11-20T02:26:12.972Z,88
2018-11-20T02:31:45.467Z,89
2018-11-20T02:37:09.061Z,89
2018-11-20T02:42:37.254Z,89
2018-11-20T02:48:05.694Z,88
2018-11-20T02:53:33.395Z,88
2018-11-20T02:59:01.800Z,88
2018-11-20T03:04:30.245Z,88
2018-11-20T03:09:58.809Z,88
2018-11-20T03:15:26.881Z,88
2018-11-20T03:20:54.347Z,88
2018-11-20T03:26:21.825Z,88
2018-11-20T03:31:50.337Z,88
2018-11-20T03:37:18.690Z,87
2018-11-20T03:42:46.164Z,87
2018-11-20T03:48:13.858Z,87
2018-11-20T03:53:42.083Z,87
2018-11-20T03:59:09.827Z,87
2018-11-20T04:04:36.972Z,87
2018-11-20T04:10:09.910Z,87
2018-11-20T04:15:32.000Z,87
2018-11-20T04:21:00.372Z,87
2018-11-20T07:04:59.055Z,86
2018-11-20T07:10:27.121Z,86
2018-11-20T07:15:55.858Z,85
2018-11-20T07:21:24.028Z,85
2018-11-20T07:26:52.733Z,85
2018-11-20T07:32:20.211Z,85
2018-11-20T07:37:47.395Z,85
2018-11-20T07:43:15.937Z,85
2018-11-20T07:48:48.352Z,85
2018-11-20T07:54:11.798Z,84
2018-11-20T07:59:40.286Z,85
2018-11-20T08:05:07.948Z,84
2018-11-20T08:10:41.134Z,84
2018-11-20T08:16:04.661Z,84
2018-11-20T08:21:33.024Z,84
2018-11-20T08:27:00.525Z,84
2018-11-20T08:32:27.946Z,84
2018-11-20T08:37:56.478Z,84
2018-11-20T08:43:28.896Z,84
2018-11-20T08:48:51.398Z,84
2018-11-20T08:54:18.859Z,83
2018-11-20T08:59:46.573Z,83
2018-11-20T09:05:14.795Z,83
2018-11-20T09:10:42.610Z,83
2018-11-20T09:16:10.763Z,83
2018-11-20T09:21:43.508Z,83
2018-11-20T09:27:06.688Z,83
2018-11-20T09:32:35.165Z,82
2018-11-20T09:38:03.664Z,82
2018-11-20T09:43:37.141Z,82
2018-11-20T09:48:59.612Z,82
2018-11-20T09:54:32.411Z,82
2018-11-20T09:59:54.771Z,82
2018-11-20T10:05:22.358Z,82
2018-11-20T10:10:50.552Z,82
2018-11-20T10:16:19.298Z,82
2018-11-20T10:21:47.505Z,82
2018-11-20T10:27:14.960Z,82
2018-11-20T10:32:42.556Z,82
2018-11-20T10:38:10.935Z,82
2018-11-20T10:43:39.415Z,82
2018-11-20T10:49:06.982Z,82
2018-11-20T10:54:40.432Z,82
2018-11-20T11:00:02.891Z,82
2018-11-20T11:05:30.399Z,82
2018-11-20T11:10:58.857Z,82
2018-11-20T11:16:26.630Z,82
2018-11-20T11:21:58.880Z,82
2018-11-20T11:27:21.606Z,81
2018-11-20T11:32:50.123Z,81
2018-11-20T11:38:18.306Z,81
2018-11-20T11:43:45.757Z,81
2018-11-20T11:49:14.229Z,81
2018-11-20T11:54:41.743Z,81
2018-11-20T12:00:09.213Z,81
2018-11-20T12:05:37.696Z,81
2018-11-20T12:11:06.181Z,81
2018-11-20T12:16:33.906Z,81
2018-11-20T12:22:01.129Z,81
2018-11-20T12:27:28.613Z,82
2018-11-20T12:32:57.095Z,82
2018-11-20T12:38:24.585Z,82
2018-11-20T12:43:52.089Z,82
2018-11-20T12:49:24.520Z,82
2018-11-20T12:54:47.028Z,82
2018-11-20T13:00:15.491Z,82
2018-11-20T13:05:42.966Z,82
2018-11-20T13:11:10.445Z,82
2018-11-20T13:16:37.969Z,82
2018-11-20T13:22:11.375Z,82
2018-11-20T13:27:34.864Z,82
2018-11-20T13:33:03.382Z,82
2018-11-20T13:38:33.293Z,82
2018-11-20T13:44:05.387Z,82
2018-11-20T13:49:28.051Z,82
2018-11-20T13:54:55.620Z,82
2018-11-20T14:00:23.761Z,82
2018-11-20T14:05:51.430Z,82
2018-11-20T14:11:23.663Z,82
2018-11-20T14:16:46.108Z,82
2018-11-20T14:22:19.168Z,82
2018-11-20T14:27:47.060Z,82
2018-11-20T14:33:14.623Z,82
2018-11-20T14:38:43.023Z,82
2018-11-20T14:44:05.532Z,82
2018-11-20T14:49:34.064Z,82
2018-11-20T14:55:07.662Z,81
2018-11-20T15:00:35.895Z,81
2018-11-20T15:06:03.356Z,81
2018-11-20T15:11:25.748Z,82
2018-11-20T15:16:59.214Z,82
2018-11-20T15:22:22.950Z,82
2018-11-20T15:27:50.608Z,81
2018-11-20T15:33:22.635Z,81
2018-11-20T15:38:51.192Z,81
2018-11-20T15:44:13.558Z,81
2018-11-20T15:49:41.994Z,81
2018-11-20T15:55:10.416Z,81
2018-11-20T16:00:38.869Z,81
2018-11-20T16:06:07.639Z,81
2018-11-20T16:11:35.825Z,81
2018-11-20T16:17:16.384Z,81
2018-11-20T16:22:32.780Z,81
2018-11-20T16:28:00.362Z,81
2018-11-20T16:33:28.962Z,81
2018-11-20T16:39:02.159Z,81
2018-11-20T16:44:24.662Z,81
2018-11-20T16:49:53.097Z,81
2018-11-20T16:55:20.843Z,81
2018-11-20T17:00:48.024Z,81
2018-11-20T17:06:21.792Z,81
2018-11-20T17:11:44.291Z,81
2018-11-20T17:17:11.759Z,81
2018-11-20T17:22:39.968Z,81
2018-11-20T17:28:12.425Z,81
2018-11-20T17:33:36.227Z,81
2018-11-20T17:39:03.446Z,81
2018-11-20T17:44:31.959Z,81
2018-11-20T17:50:04.475Z,81
2018-11-20T17:55:27.147Z,81
2018-11-20T18:00:59.386Z,81
2018-11-20T18:06:31.910Z,81
2018-11-20T18:11:50.368Z,81
2018-11-20T18:17:23.433Z,81
2018-11-20T18:22:46.315Z,81
2018-11-20T18:28:14.173Z,81
2018-11-20T18:33:42.352Z,81
2018-11-20T18:39:14.806Z,81
2018-11-20T18:44:38.308Z,81
2018-11-20T18:50:05.786Z,81
2018-11-20T18:55:33.322Z,80
2018-11-20T19:01:00.768Z,80
2018-11-20T19:06:28.258Z,80
2018-11-20T19:12:03.630Z,80
2018-11-20T19:17:23.205Z,80
2018-11-20T19:22:56.983Z,80
2018-11-20T19:28:19.186Z,80
2018-11-20T19:33:47.003Z,80
2018-11-20T19:39:20.757Z,80
2018-11-20T19:44:42.724Z,80
2018-11-20T19:50:11.158Z,80
2018-11-20T19:55:43.647Z,80
2018-11-20T20:01:06.148Z,80
2018-11-20T20:06:34.613Z,80
2018-11-20T20:12:03.351Z,80
2018-11-20T20:17:30.529Z,80
2018-11-20T20:22:58.007Z,80
2018-11-20T20:28:25.504Z,80
2018-11-20T20:33:53.983Z,80
2018-11-20T20:39:22.441Z,80
2018-11-20T20:44:55.210Z,80
2018-11-20T20:50:17.373Z,80
2018-11-20T20:55:44.836Z,80
2018-11-20T21:01:18.398Z,80
2018-11-20T21:06:42.029Z,80
2018-11-20T21:12:10.318Z,80
2018-11-20T21:17:37.671Z,80
2018-11-20T21:23:05.379Z,80
2018-11-20T21:28:33.811Z,79
2018-11-20T21:34:01.005Z,79
2018-11-20T21:39:35.016Z,79
2018-11-20T21:45:03.065Z,79
2018-11-20T21:50:26.964Z,79
2018-11-20T21:55:58.816Z,79
2018-11-20T22:01:27.311Z,79
2018-11-20T22:06:54.753Z,79
2018-11-20T22:12:18.258Z,79
2018-11-20T22:17:45.889Z,79
2018-11-20T22:23:14.095Z,79
2018-11-20T22:28:41.523Z,79
2018-11-20T22:34:09.965Z,79
2018-11-20T22:39:37.691Z,79
2018-11-20T22:45:09.880Z,79
2018-11-20T22:50:32.347Z,79
2018-11-20T22:56:01.358Z,79
2018-11-20T23:01:33.259Z,79
2018-11-20T23:06:55.735Z,79
2018-11-20T23:12:24.447Z,79
2018-11-20T23:17:56.915Z,79
2018-11-20T23:23:20.049Z,79
2018-11-20T23:28:47.489Z,79
2018-11-20T23:34:14.996Z,79
2018-11-20T23:39:43.538Z,79
2018-11-20T23:45:11.187Z,79
2018-11-20T23:50:39.311Z,79
2018-11-20T23:56:07.979Z,79
